sensor_id;sensor_type;location;lat;lon;timestamp;P1;durP1;ratioP1;P2;durP2;ratioP2
10452;SDS011;5274;51.992;8.518;2023-07-16T00:02:16;52.92;;;49.42;;
10452;SDS011;5274;51.992;8.518;2023-07-16T00:04:42;53.67;;;50.05;;
10452;SDS011;5274;51.992;8.518;2023-07-16T00:07:08;52.30;;;48.70;;
10452;SDS011;5274;51.992;8.518;2023-07-16T00:09:35;53.15;;;49.65;;
10452;SDS011;5274;51.992;8.518;2023-07-16T00:12:01;54.40;;;50.70;;
10452;SDS011;5274;51.992;8.518;2023-07-16T00:14:27;53.97;;;50.28;;
10452;SDS011;5274;51.992;8.518;2023-07-16T00:16:53;54.00;;;50.45;;
10452;SDS011;5274;51.992;8.518;2023-07-16T00:19:19;54.05;;;50.55;;
10452;SDS011;5274;51.992;8.518;2023-07-16T00:21:45;55.58;;;51.88;;
10452;SDS011;5274;51.992;8.518;2023-07-16T00:24:11;54.53;;;50.53;;
10452;SDS011;5274;51.992;8.518;2023-07-16T00:26:37;54.33;;;50.55;;
10452;SDS011;5274;51.992;8.518;2023-07-16T00:29:03;52.78;;;49.30;;
10452;SDS011;5274;51.992;8.518;2023-07-16T00:31:28;53.75;;;49.78;;
10452;SDS011;5274;51.992;8.518;2023-07-16T00:33:54;53.30;;;49.70;;
10452;SDS011;5274;51.992;8.518;2023-07-16T00:36:20;52.90;;;49.30;;
10452;SDS011;5274;51.992;8.518;2023-07-16T00:38:46;53.28;;;49.65;;
10452;SDS011;5274;51.992;8.518;2023-07-16T00:41:13;53.38;;;49.88;;
10452;SDS011;5274;51.992;8.518;2023-07-16T00:43:39;53.40;;;49.80;;
10452;SDS011;5274;51.992;8.518;2023-07-16T00:46:05;53.58;;;49.88;;
10452;SDS011;5274;51.992;8.518;2023-07-16T00:48:31;53.38;;;49.80;;
10452;SDS011;5274;51.992;8.518;2023-07-16T00:50:57;53.67;;;49.85;;
10452;SDS011;5274;51.992;8.518;2023-07-16T00:53:25;54.17;;;50.47;;
10452;SDS011;5274;51.992;8.518;2023-07-16T00:55:51;54.72;;;50.58;;
10452;SDS011;5274;51.992;8.518;2023-07-16T00:58:17;53.78;;;49.95;;
10452;SDS011;5274;51.992;8.518;2023-07-16T01:00:43;52.08;;;48.47;;
10452;SDS011;5274;51.992;8.518;2023-07-16T01:03:10;53.60;;;49.90;;
10452;SDS011;5274;51.992;8.518;2023-07-16T01:08:17;53.75;;;50.05;;
10452;SDS011;5274;51.992;8.518;2023-07-16T01:10:46;53.47;;;49.88;;
10452;SDS011;5274;51.992;8.518;2023-07-16T01:13:12;52.95;;;49.35;;
10452;SDS011;5274;51.992;8.518;2023-07-16T01:15:38;52.38;;;48.88;;
10452;SDS011;5274;51.992;8.518;2023-07-16T01:18:05;52.30;;;48.83;;
10452;SDS011;5274;51.992;8.518;2023-07-16T01:20:31;53.13;;;49.63;;
10452;SDS011;5274;51.992;8.518;2023-07-16T01:23:01;52.20;;;48.58;;
10452;SDS011;5274;51.992;8.518;2023-07-16T01:26:16;52.97;;;49.30;;
10452;SDS011;5274;51.992;8.518;2023-07-16T01:28:33;52.60;;;49.10;;
10452;SDS011;5274;51.992;8.518;2023-07-16T01:31:01;53.33;;;49.83;;
10452;SDS011;5274;51.992;8.518;2023-07-16T01:33:27;55.38;;;51.78;;
10452;SDS011;5274;51.992;8.518;2023-07-16T01:35:53;55.10;;;51.50;;
10452;SDS011;5274;51.992;8.518;2023-07-16T01:38:20;55.42;;;51.38;;
10452;SDS011;5274;51.992;8.518;2023-07-16T01:40:48;54.72;;;51.03;;
10452;SDS011;5274;51.992;8.518;2023-07-16T01:43:14;55.47;;;51.72;;
10452;SDS011;5274;51.992;8.518;2023-07-16T01:45:40;55.53;;;51.78;;
10452;SDS011;5274;51.992;8.518;2023-07-16T01:48:13;55.47;;;51.38;;
10452;SDS011;5274;51.992;8.518;2023-07-16T01:50:40;55.15;;;51.45;;
10452;SDS011;5274;51.992;8.518;2023-07-16T01:53:07;53.53;;;50.03;;
10452;SDS011;5274;51.992;8.518;2023-07-16T01:55:32;54.03;;;50.33;;
10452;SDS011;5274;51.992;8.518;2023-07-16T01:57:58;54.28;;;50.78;;
10452;SDS011;5274;51.992;8.518;2023-07-16T02:00:24;54.17;;;50.67;;
10452;SDS011;5274;51.992;8.518;2023-07-16T02:02:50;52.72;;;49.00;;
10452;SDS011;5274;51.992;8.518;2023-07-16T02:05:16;52.95;;;49.17;;
10452;SDS011;5274;51.992;8.518;2023-07-16T02:07:42;51.08;;;47.60;;
10452;SDS011;5274;51.992;8.518;2023-07-16T02:10:08;50.33;;;46.97;;
10452;SDS011;5274;51.992;8.518;2023-07-16T02:12:34;50.65;;;47.28;;
10452;SDS011;5274;51.992;8.518;2023-07-16T02:15:00;51.85;;;48.38;;
10452;SDS011;5274;51.992;8.518;2023-07-16T02:17:26;52.42;;;48.75;;
10452;SDS011;5274;51.992;8.518;2023-07-16T02:19:52;52.47;;;48.97;;
10452;SDS011;5274;51.992;8.518;2023-07-16T02:22:18;52.83;;;48.72;;
10452;SDS011;5274;51.992;8.518;2023-07-16T02:24:44;52.05;;;48.47;;
10452;SDS011;5274;51.992;8.518;2023-07-16T02:27:10;52.05;;;48.35;;
10452;SDS011;5274;51.992;8.518;2023-07-16T02:29:36;52.08;;;48.67;;
10452;SDS011;5274;51.992;8.518;2023-07-16T02:32:02;52.40;;;48.88;;
10452;SDS011;5274;51.992;8.518;2023-07-16T02:34:28;52.75;;;49.15;;
10452;SDS011;5274;51.992;8.518;2023-07-16T02:36:54;51.85;;;48.05;;
10452;SDS011;5274;51.992;8.518;2023-07-16T02:39:20;52.05;;;48.35;;
10452;SDS011;5274;51.992;8.518;2023-07-16T02:41:46;51.60;;;47.92;;
10452;SDS011;5274;51.992;8.518;2023-07-16T02:44:12;51.65;;;48.15;;
10452;SDS011;5274;51.992;8.518;2023-07-16T02:46:38;51.10;;;47.60;;
10452;SDS011;5274;51.992;8.518;2023-07-16T02:49:04;51.03;;;47.63;;
10452;SDS011;5274;51.992;8.518;2023-07-16T02:51:30;51.30;;;47.88;;
10452;SDS011;5274;51.992;8.518;2023-07-16T02:53:56;52.13;;;48.55;;
10452;SDS011;5274;51.992;8.518;2023-07-16T02:56:22;52.72;;;48.83;;
10452;SDS011;5274;51.992;8.518;2023-07-16T02:58:48;52.65;;;48.95;;
10452;SDS011;5274;51.992;8.518;2023-07-16T03:01:14;52.70;;;49.03;;
10452;SDS011;5274;51.992;8.518;2023-07-16T03:03:39;51.95;;;48.40;;
10452;SDS011;5274;51.992;8.518;2023-07-16T03:06:06;48.08;;;44.90;;
10452;SDS011;5274;51.992;8.518;2023-07-16T03:08:33;47.05;;;43.85;;
10452;SDS011;5274;51.992;8.518;2023-07-16T03:10:59;48.78;;;45.47;;
10452;SDS011;5274;51.992;8.518;2023-07-16T03:13:25;48.95;;;45.50;;
10452;SDS011;5274;51.992;8.518;2023-07-16T03:15:51;49.72;;;46.22;;
10452;SDS011;5274;51.992;8.518;2023-07-16T03:18:18;48.80;;;45.50;;
10452;SDS011;5274;51.992;8.518;2023-07-16T03:20:44;51.22;;;47.60;;
10452;SDS011;5274;51.992;8.518;2023-07-16T03:23:10;50.83;;;47.15;;
10452;SDS011;5274;51.992;8.518;2023-07-16T03:25:36;51.30;;;47.53;;
10452;SDS011;5274;51.992;8.518;2023-07-16T03:28:02;52.47;;;48.80;;
10452;SDS011;5274;51.992;8.518;2023-07-16T03:30:30;51.30;;;48.00;;
10452;SDS011;5274;51.992;8.518;2023-07-16T03:32:55;52.38;;;48.65;;
10452;SDS011;5274;51.992;8.518;2023-07-16T03:35:21;53.67;;;49.88;;
10452;SDS011;5274;51.992;8.518;2023-07-16T03:37:47;54.53;;;50.67;;
10452;SDS011;5274;51.992;8.518;2023-07-16T03:40:14;54.97;;;51.15;;
10452;SDS011;5274;51.992;8.518;2023-07-16T03:42:40;53.30;;;49.40;;
10452;SDS011;5274;51.992;8.518;2023-07-16T03:45:06;49.97;;;46.97;;
10452;SDS011;5274;51.992;8.518;2023-07-16T03:47:33;30.60;;;28.90;;
10452;SDS011;5274;51.992;8.518;2023-07-16T03:49:58;30.73;;;29.02;;
10452;SDS011;5274;51.992;8.518;2023-07-16T03:52:24;31.17;;;29.58;;
10452;SDS011;5274;51.992;8.518;2023-07-16T03:54:51;33.17;;;31.23;;
10452;SDS011;5274;51.992;8.518;2023-07-16T03:57:17;32.65;;;30.88;;
10452;SDS011;5274;51.992;8.518;2023-07-16T03:59:43;32.00;;;30.17;;
10452;SDS011;5274;51.992;8.518;2023-07-16T04:02:09;31.23;;;29.63;;
10452;SDS011;5274;51.992;8.518;2023-07-16T04:04:35;31.40;;;29.73;;
10452;SDS011;5274;51.992;8.518;2023-07-16T04:07:00;32.50;;;30.70;;
10452;SDS011;5274;51.992;8.518;2023-07-16T04:09:26;31.50;;;29.35;;
10452;SDS011;5274;51.992;8.518;2023-07-16T04:11:52;30.77;;;29.17;;
10452;SDS011;5274;51.992;8.518;2023-07-16T04:14:18;29.75;;;28.15;;
10452;SDS011;5274;51.992;8.518;2023-07-16T04:16:44;31.77;;;30.08;;
10452;SDS011;5274;51.992;8.518;2023-07-16T04:19:10;32.83;;;30.92;;
10452;SDS011;5274;51.992;8.518;2023-07-16T04:21:36;32.47;;;30.83;;
10452;SDS011;5274;51.992;8.518;2023-07-16T04:24:02;31.92;;;29.92;;
10452;SDS011;5274;51.992;8.518;2023-07-16T04:26:28;31.98;;;30.17;;
10452;SDS011;5274;51.992;8.518;2023-07-16T04:28:54;31.75;;;29.90;;
10452;SDS011;5274;51.992;8.518;2023-07-16T04:31:20;31.27;;;29.73;;
10452;SDS011;5274;51.992;8.518;2023-07-16T04:33:46;31.25;;;29.48;;
10452;SDS011;5274;51.992;8.518;2023-07-16T04:36:12;31.67;;;29.88;;
10452;SDS011;5274;51.992;8.518;2023-07-16T04:38:38;31.40;;;29.60;;
10452;SDS011;5274;51.992;8.518;2023-07-16T04:41:04;31.98;;;30.15;;
10452;SDS011;5274;51.992;8.518;2023-07-16T04:43:30;31.35;;;29.75;;
10452;SDS011;5274;51.992;8.518;2023-07-16T04:45:56;30.88;;;29.35;;
10452;SDS011;5274;51.992;8.518;2023-07-16T04:48:22;30.70;;;29.10;;
10452;SDS011;5274;51.992;8.518;2023-07-16T04:50:48;32.20;;;30.30;;
10452;SDS011;5274;51.992;8.518;2023-07-16T04:53:13;31.52;;;29.73;;
10452;SDS011;5274;51.992;8.518;2023-07-16T04:55:42;33.78;;;31.83;;
10452;SDS011;5274;51.992;8.518;2023-07-16T04:58:09;32.72;;;30.83;;
10452;SDS011;5274;51.992;8.518;2023-07-16T05:00:35;31.92;;;30.10;;
10452;SDS011;5274;51.992;8.518;2023-07-16T05:03:01;32.38;;;30.70;;
10452;SDS011;5274;51.992;8.518;2023-07-16T05:05:27;30.95;;;29.27;;
10452;SDS011;5274;51.992;8.518;2023-07-16T05:07:53;30.42;;;28.80;;
10452;SDS011;5274;51.992;8.518;2023-07-16T05:10:19;32.22;;;30.38;;
10452;SDS011;5274;51.992;8.518;2023-07-16T05:12:44;32.17;;;30.45;;
10452;SDS011;5274;51.992;8.518;2023-07-16T05:15:10;32.60;;;30.60;;
10452;SDS011;5274;51.992;8.518;2023-07-16T05:17:36;31.17;;;29.45;;
10452;SDS011;5274;51.992;8.518;2023-07-16T05:20:03;47.03;;;44.35;;
10452;SDS011;5274;51.992;8.518;2023-07-16T05:22:29;43.63;;;40.50;;
10452;SDS011;5274;51.992;8.518;2023-07-16T05:24:55;40.42;;;38.15;;
10452;SDS011;5274;51.992;8.518;2023-07-16T05:27:21;46.42;;;43.55;;
10452;SDS011;5274;51.992;8.518;2023-07-16T05:29:47;45.78;;;43.13;;
10452;SDS011;5274;51.992;8.518;2023-07-16T05:32:13;45.08;;;42.28;;
10452;SDS011;5274;51.992;8.518;2023-07-16T05:34:39;44.63;;;42.00;;
10452;SDS011;5274;51.992;8.518;2023-07-16T05:37:05;47.70;;;44.90;;
10452;SDS011;5274;51.992;8.518;2023-07-16T05:39:31;48.65;;;45.55;;
10452;SDS011;5274;51.992;8.518;2023-07-16T05:41:57;46.03;;;42.90;;
10452;SDS011;5274;51.992;8.518;2023-07-16T05:44:23;48.70;;;45.70;;
10452;SDS011;5274;51.992;8.518;2023-07-16T05:46:49;48.15;;;45.45;;
10452;SDS011;5274;51.992;8.518;2023-07-16T05:49:15;48.15;;;45.40;;
10452;SDS011;5274;51.992;8.518;2023-07-16T05:51:41;47.70;;;45.00;;
10452;SDS011;5274;51.992;8.518;2023-07-16T05:54:07;48.03;;;45.22;;
10452;SDS011;5274;51.992;8.518;2023-07-16T05:56:33;50.55;;;47.38;;
10452;SDS011;5274;51.992;8.518;2023-07-16T05:58:59;51.38;;;48.45;;
10452;SDS011;5274;51.992;8.518;2023-07-16T06:01:25;52.35;;;49.45;;
10452;SDS011;5274;51.992;8.518;2023-07-16T06:03:51;51.42;;;48.53;;
10452;SDS011;5274;51.992;8.518;2023-07-16T06:06:18;51.67;;;48.88;;
10452;SDS011;5274;51.992;8.518;2023-07-16T06:08:44;50.53;;;47.45;;
10452;SDS011;5274;51.992;8.518;2023-07-16T06:11:11;43.60;;;41.13;;
10452;SDS011;5274;51.992;8.518;2023-07-16T06:13:37;49.45;;;45.92;;
10452;SDS011;5274;51.992;8.518;2023-07-16T06:16:03;53.28;;;49.47;;
10452;SDS011;5274;51.992;8.518;2023-07-16T06:18:29;53.30;;;49.33;;
10452;SDS011;5274;51.992;8.518;2023-07-16T06:20:55;46.03;;;43.13;;
10452;SDS011;5274;51.992;8.518;2023-07-16T06:23:21;48.35;;;45.13;;
10452;SDS011;5274;51.992;8.518;2023-07-16T06:25:47;47.97;;;44.83;;
10452;SDS011;5274;51.992;8.518;2023-07-16T06:28:14;47.38;;;44.45;;
10452;SDS011;5274;51.992;8.518;2023-07-16T06:30:41;47.67;;;44.38;;
10452;SDS011;5274;51.992;8.518;2023-07-16T06:33:07;47.08;;;44.17;;
10452;SDS011;5274;51.992;8.518;2023-07-16T06:35:33;47.05;;;43.80;;
10452;SDS011;5274;51.992;8.518;2023-07-16T06:37:59;46.53;;;43.50;;
10452;SDS011;5274;51.992;8.518;2023-07-16T06:40:25;46.97;;;44.10;;
10452;SDS011;5274;51.992;8.518;2023-07-16T06:42:51;42.35;;;39.70;;
10452;SDS011;5274;51.992;8.518;2023-07-16T06:45:17;44.80;;;41.80;;
10452;SDS011;5274;51.992;8.518;2023-07-16T06:47:43;46.95;;;43.85;;
10452;SDS011;5274;51.992;8.518;2023-07-16T06:50:09;47.25;;;43.80;;
10452;SDS011;5274;51.992;8.518;2023-07-16T06:52:35;48.15;;;44.65;;
10452;SDS011;5274;51.992;8.518;2023-07-16T06:55:01;45.25;;;42.10;;
10452;SDS011;5274;51.992;8.518;2023-07-16T06:57:27;46.03;;;42.80;;
10452;SDS011;5274;51.992;8.518;2023-07-16T06:59:53;45.25;;;42.35;;
10452;SDS011;5274;51.992;8.518;2023-07-16T07:02:19;41.10;;;38.33;;
10452;SDS011;5274;51.992;8.518;2023-07-16T07:04:46;44.83;;;41.92;;
10452;SDS011;5274;51.992;8.518;2023-07-16T07:07:12;45.80;;;42.55;;
10452;SDS011;5274;51.992;8.518;2023-07-16T07:09:38;46.80;;;43.60;;
10452;SDS011;5274;51.992;8.518;2023-07-16T07:12:04;48.08;;;44.97;;
10452;SDS011;5274;51.992;8.518;2023-07-16T07:14:30;47.45;;;44.25;;
10452;SDS011;5274;51.992;8.518;2023-07-16T07:16:56;49.08;;;45.50;;
10452;SDS011;5274;51.992;8.518;2023-07-16T07:19:22;47.70;;;44.58;;
10452;SDS011;5274;51.992;8.518;2023-07-16T07:21:48;49.65;;;46.17;;
10452;SDS011;5274;51.992;8.518;2023-07-16T07:24:14;46.53;;;43.33;;
10452;SDS011;5274;51.992;8.518;2023-07-16T07:26:40;46.88;;;43.72;;
10452;SDS011;5274;51.992;8.518;2023-07-16T07:29:06;45.25;;;42.25;;
10452;SDS011;5274;51.992;8.518;2023-07-16T07:31:32;46.53;;;42.85;;
10452;SDS011;5274;51.992;8.518;2023-07-16T07:33:58;55.55;;;51.33;;
10452;SDS011;5274;51.992;8.518;2023-07-16T07:36:24;55.40;;;51.63;;
10452;SDS011;5274;51.992;8.518;2023-07-16T07:38:50;55.47;;;51.65;;
10452;SDS011;5274;51.992;8.518;2023-07-16T07:41:16;54.90;;;51.10;;
10452;SDS011;5274;51.992;8.518;2023-07-16T07:43:42;55.50;;;51.53;;
10452;SDS011;5274;51.992;8.518;2023-07-16T07:46:08;56.50;;;52.42;;
10452;SDS011;5274;51.992;8.518;2023-07-16T07:48:35;56.05;;;52.15;;
10452;SDS011;5274;51.992;8.518;2023-07-16T07:51:01;57.15;;;53.15;;
10452;SDS011;5274;51.992;8.518;2023-07-16T07:53:27;57.20;;;53.22;;
10452;SDS011;5274;51.992;8.518;2023-07-16T07:55:53;54.70;;;51.15;;
10452;SDS011;5274;51.992;8.518;2023-07-16T07:58:20;54.58;;;50.78;;
10452;SDS011;5274;51.992;8.518;2023-07-16T08:00:45;56.72;;;52.10;;
10452;SDS011;5274;51.992;8.518;2023-07-16T08:03:11;55.55;;;51.78;;
10452;SDS011;5274;51.992;8.518;2023-07-16T08:05:37;56.28;;;52.38;;
10452;SDS011;5274;51.992;8.518;2023-07-16T08:08:03;54.30;;;50.53;;
10452;SDS011;5274;51.992;8.518;2023-07-16T08:10:29;58.30;;;54.25;;
10452;SDS011;5274;51.992;8.518;2023-07-16T08:12:55;57.85;;;53.42;;
10452;SDS011;5274;51.992;8.518;2023-07-16T08:15:21;57.63;;;53.58;;
10452;SDS011;5274;51.992;8.518;2023-07-16T08:17:47;59.03;;;54.78;;
10452;SDS011;5274;51.992;8.518;2023-07-16T08:20:13;59.42;;;55.10;;
10452;SDS011;5274;51.992;8.518;2023-07-16T08:22:39;58.17;;;54.08;;
10452;SDS011;5274;51.992;8.518;2023-07-16T08:25:06;58.40;;;54.20;;
10452;SDS011;5274;51.992;8.518;2023-07-16T08:27:32;56.55;;;52.55;;
10452;SDS011;5274;51.992;8.518;2023-07-16T08:29:58;56.10;;;52.17;;
10452;SDS011;5274;51.992;8.518;2023-07-16T08:32:24;57.28;;;52.75;;
10452;SDS011;5274;51.992;8.518;2023-07-16T08:34:50;57.00;;;53.10;;
10452;SDS011;5274;51.992;8.518;2023-07-16T08:37:16;58.40;;;54.30;;
10452;SDS011;5274;51.992;8.518;2023-07-16T08:39:42;59.45;;;55.03;;
10452;SDS011;5274;51.992;8.518;2023-07-16T08:42:09;57.50;;;53.65;;
10452;SDS011;5274;51.992;8.518;2023-07-16T08:44:36;56.85;;;52.60;;
10452;SDS011;5274;51.992;8.518;2023-07-16T08:47:02;55.17;;;51.50;;
10452;SDS011;5274;51.992;8.518;2023-07-16T08:49:28;54.63;;;51.10;;
10452;SDS011;5274;51.992;8.518;2023-07-16T08:51:55;50.60;;;47.08;;
10452;SDS011;5274;51.992;8.518;2023-07-16T08:54:21;54.17;;;50.40;;
10452;SDS011;5274;51.992;8.518;2023-07-16T08:56:48;55.35;;;51.65;;
10452;SDS011;5274;51.992;8.518;2023-07-16T08:59:17;58.75;;;54.55;;
10452;SDS011;5274;51.992;8.518;2023-07-16T09:01:43;57.42;;;53.63;;
10452;SDS011;5274;51.992;8.518;2023-07-16T09:04:09;57.13;;;53.22;;
10452;SDS011;5274;51.992;8.518;2023-07-16T09:06:35;57.03;;;53.00;;
10452;SDS011;5274;51.992;8.518;2023-07-16T09:09:01;54.90;;;51.33;;
10452;SDS011;5274;51.992;8.518;2023-07-16T09:11:26;55.13;;;51.15;;
10452;SDS011;5274;51.992;8.518;2023-07-16T09:13:52;54.25;;;50.42;;
10452;SDS011;5274;51.992;8.518;2023-07-16T09:16:18;55.20;;;51.60;;
10452;SDS011;5274;51.992;8.518;2023-07-16T09:18:45;52.63;;;49.05;;
10452;SDS011;5274;51.992;8.518;2023-07-16T09:21:12;56.85;;;53.13;;
10452;SDS011;5274;51.992;8.518;2023-07-16T09:23:37;57.45;;;53.72;;
10452;SDS011;5274;51.992;8.518;2023-07-16T09:26:03;57.80;;;53.70;;
10452;SDS011;5274;51.992;8.518;2023-07-16T09:28:31;55.17;;;51.58;;
10452;SDS011;5274;51.992;8.518;2023-07-16T09:31:03;57.33;;;53.22;;
10452;SDS011;5274;51.992;8.518;2023-07-16T09:33:30;57.20;;;53.30;;
10452;SDS011;5274;51.992;8.518;2023-07-16T09:35:57;54.17;;;50.58;;
10452;SDS011;5274;51.992;8.518;2023-07-16T09:38:23;52.70;;;49.30;;
10452;SDS011;5274;51.992;8.518;2023-07-16T09:40:49;52.08;;;48.67;;
10452;SDS011;5274;51.992;8.518;2023-07-16T09:43:17;55.05;;;51.45;;
10452;SDS011;5274;51.992;8.518;2023-07-16T09:45:43;56.85;;;52.95;;
10452;SDS011;5274;51.992;8.518;2023-07-16T09:48:09;54.33;;;50.40;;
10452;SDS011;5274;51.992;8.518;2023-07-16T09:50:35;53.75;;;50.08;;
10452;SDS011;5274;51.992;8.518;2023-07-16T09:53:03;53.70;;;49.88;;
10452;SDS011;5274;51.992;8.518;2023-07-16T09:55:30;54.25;;;50.45;;
10452;SDS011;5274;51.992;8.518;2023-07-16T09:57:57;55.08;;;51.13;;
10452;SDS011;5274;51.992;8.518;2023-07-16T10:00:24;54.90;;;50.88;;
10452;SDS011;5274;51.992;8.518;2023-07-16T10:02:50;53.28;;;49.60;;
10452;SDS011;5274;51.992;8.518;2023-07-16T10:05:18;54.75;;;50.17;;
10452;SDS011;5274;51.992;8.518;2023-07-16T10:07:57;37.88;;;35.45;;
10452;SDS011;5274;51.992;8.518;2023-07-16T10:10:37;44.53;;;41.80;;
10452;SDS011;5274;51.992;8.518;2023-07-16T10:13:04;50.90;;;47.25;;
10452;SDS011;5274;51.992;8.518;2023-07-16T10:15:30;53.15;;;49.40;;
10452;SDS011;5274;51.992;8.518;2023-07-16T10:17:56;47.33;;;44.33;;
10452;SDS011;5274;51.992;8.518;2023-07-16T10:22:54;53.38;;;49.72;;
10452;SDS011;5274;51.992;8.518;2023-07-16T10:27:47;51.08;;;47.58;;
10452;SDS011;5274;51.992;8.518;2023-07-16T10:30:13;51.47;;;48.17;;
10452;SDS011;5274;51.992;8.518;2023-07-16T10:32:39;54.50;;;50.95;;
10452;SDS011;5274;51.992;8.518;2023-07-16T10:35:06;54.47;;;50.78;;
10452;SDS011;5274;51.992;8.518;2023-07-16T10:37:33;44.60;;;41.60;;
10452;SDS011;5274;51.992;8.518;2023-07-16T10:40:00;40.97;;;38.33;;
10452;SDS011;5274;51.992;8.518;2023-07-16T10:42:26;41.83;;;39.33;;
10452;SDS011;5274;51.992;8.518;2023-07-16T10:45:03;40.08;;;37.60;;
10452;SDS011;5274;51.992;8.518;2023-07-16T10:47:30;40.88;;;38.38;;
10452;SDS011;5274;51.992;8.518;2023-07-16T10:49:57;40.60;;;38.10;;
10452;SDS011;5274;51.992;8.518;2023-07-16T10:52:23;43.17;;;40.35;;
10452;SDS011;5274;51.992;8.518;2023-07-16T10:54:50;44.95;;;41.90;;
10452;SDS011;5274;51.992;8.518;2023-07-16T10:57:19;46.35;;;43.33;;
10452;SDS011;5274;51.992;8.518;2023-07-16T10:59:45;45.00;;;42.08;;
10452;SDS011;5274;51.992;8.518;2023-07-16T11:02:13;45.13;;;42.13;;
10452;SDS011;5274;51.992;8.518;2023-07-16T11:04:39;43.75;;;40.95;;
10452;SDS011;5274;51.992;8.518;2023-07-16T11:07:09;45.55;;;42.55;;
10452;SDS011;5274;51.992;8.518;2023-07-16T11:09:42;44.25;;;41.17;;
10452;SDS011;5274;51.992;8.518;2023-07-16T11:12:09;45.30;;;42.30;;
10452;SDS011;5274;51.992;8.518;2023-07-16T11:14:36;46.08;;;43.00;;
10452;SDS011;5274;51.992;8.518;2023-07-16T11:17:06;44.17;;;41.40;;
10452;SDS011;5274;51.992;8.518;2023-07-16T11:19:32;42.13;;;39.25;;
10452;SDS011;5274;51.992;8.518;2023-07-16T11:21:59;43.63;;;40.95;;
10452;SDS011;5274;51.992;8.518;2023-07-16T11:24:25;45.08;;;42.30;;
10452;SDS011;5274;51.992;8.518;2023-07-16T11:26:52;43.83;;;40.72;;
10452;SDS011;5274;51.992;8.518;2023-07-16T11:29:18;45.20;;;41.83;;
10452;SDS011;5274;51.992;8.518;2023-07-16T11:31:44;45.45;;;42.58;;
10452;SDS011;5274;51.992;8.518;2023-07-16T11:34:14;47.47;;;44.47;;
10452;SDS011;5274;51.992;8.518;2023-07-16T11:36:40;46.42;;;43.08;;
10452;SDS011;5274;51.992;8.518;2023-07-16T11:39:06;44.85;;;42.10;;
10452;SDS011;5274;51.992;8.518;2023-07-16T11:41:32;46.65;;;43.75;;
10452;SDS011;5274;51.992;8.518;2023-07-16T11:44:01;47.08;;;43.97;;
10452;SDS011;5274;51.992;8.518;2023-07-16T11:46:31;45.33;;;42.47;;
10452;SDS011;5274;51.992;8.518;2023-07-16T11:49:00;44.13;;;41.33;;
10452;SDS011;5274;51.992;8.518;2023-07-16T11:51:26;44.47;;;41.45;;
10452;SDS011;5274;51.992;8.518;2023-07-16T11:53:52;43.20;;;40.28;;
10452;SDS011;5274;51.992;8.518;2023-07-16T11:56:18;46.60;;;43.33;;
10452;SDS011;5274;51.992;8.518;2023-07-16T11:58:44;46.63;;;43.45;;
10452;SDS011;5274;51.992;8.518;2023-07-16T12:01:10;44.70;;;41.70;;
10452;SDS011;5274;51.992;8.518;2023-07-16T12:03:36;44.80;;;41.88;;
10452;SDS011;5274;51.992;8.518;2023-07-16T12:06:02;45.13;;;42.38;;
10452;SDS011;5274;51.992;8.518;2023-07-16T12:08:28;43.58;;;41.05;;
10452;SDS011;5274;51.992;8.518;2023-07-16T12:10:54;42.17;;;39.67;;
10452;SDS011;5274;51.992;8.518;2023-07-16T12:13:20;42.90;;;40.20;;
10452;SDS011;5274;51.992;8.518;2023-07-16T12:15:46;42.15;;;39.47;;
10452;SDS011;5274;51.992;8.518;2023-07-16T12:18:12;41.75;;;39.35;;
10452;SDS011;5274;51.992;8.518;2023-07-16T12:20:38;44.47;;;41.67;;
10452;SDS011;5274;51.992;8.518;2023-07-16T12:23:05;46.45;;;43.63;;
10452;SDS011;5274;51.992;8.518;2023-07-16T12:25:30;47.55;;;44.63;;
10452;SDS011;5274;51.992;8.518;2023-07-16T12:27:57;47.55;;;44.55;;
10452;SDS011;5274;51.992;8.518;2023-07-16T12:30:23;46.45;;;43.38;;
10452;SDS011;5274;51.992;8.518;2023-07-16T12:32:49;46.90;;;43.83;;
10452;SDS011;5274;51.992;8.518;2023-07-16T12:35:15;46.97;;;43.97;;
10452;SDS011;5274;51.992;8.518;2023-07-16T12:37:41;45.75;;;42.75;;
10452;SDS011;5274;51.992;8.518;2023-07-16T12:40:07;45.05;;;42.22;;
10452;SDS011;5274;51.992;8.518;2023-07-16T12:42:33;45.00;;;42.17;;
10452;SDS011;5274;51.992;8.518;2023-07-16T12:44:59;43.70;;;41.10;;
10452;SDS011;5274;51.992;8.518;2023-07-16T12:47:25;50.10;;;46.72;;
10452;SDS011;5274;51.992;8.518;2023-07-16T12:49:51;50.63;;;47.33;;
10452;SDS011;5274;51.992;8.518;2023-07-16T12:52:17;54.75;;;51.00;;
10452;SDS011;5274;51.992;8.518;2023-07-16T12:54:43;54.38;;;50.78;;
10452;SDS011;5274;51.992;8.518;2023-07-16T12:57:09;53.42;;;49.97;;
10452;SDS011;5274;51.992;8.518;2023-07-16T12:59:35;55.08;;;51.63;;
10452;SDS011;5274;51.992;8.518;2023-07-16T13:02:01;54.90;;;51.05;;
10452;SDS011;5274;51.992;8.518;2023-07-16T13:04:27;54.42;;;51.03;;
10452;SDS011;5274;51.992;8.518;2023-07-16T13:06:53;55.60;;;52.03;;
10452;SDS011;5274;51.992;8.518;2023-07-16T13:09:19;54.28;;;50.83;;
10452;SDS011;5274;51.992;8.518;2023-07-16T13:11:45;50.60;;;47.35;;
10452;SDS011;5274;51.992;8.518;2023-07-16T13:14:11;51.78;;;48.47;;
10452;SDS011;5274;51.992;8.518;2023-07-16T13:16:37;53.90;;;50.30;;
10452;SDS011;5274;51.992;8.518;2023-07-16T13:19:03;54.50;;;51.00;;
10452;SDS011;5274;51.992;8.518;2023-07-16T13:21:29;53.78;;;50.25;;
10452;SDS011;5274;51.992;8.518;2023-07-16T13:23:55;53.03;;;49.63;;
10452;SDS011;5274;51.992;8.518;2023-07-16T13:26:21;54.45;;;50.85;;
10452;SDS011;5274;51.992;8.518;2023-07-16T13:28:46;53.08;;;49.75;;
10452;SDS011;5274;51.992;8.518;2023-07-16T13:31:12;51.25;;;48.05;;
10452;SDS011;5274;51.992;8.518;2023-07-16T13:33:38;52.30;;;48.83;;
10452;SDS011;5274;51.992;8.518;2023-07-16T13:36:05;50.67;;;47.55;;
10452;SDS011;5274;51.992;8.518;2023-07-16T13:38:31;50.05;;;47.05;;
10452;SDS011;5274;51.992;8.518;2023-07-16T13:40:57;52.63;;;49.42;;
10452;SDS011;5274;51.992;8.518;2023-07-16T13:43:23;54.58;;;50.88;;
10452;SDS011;5274;51.992;8.518;2023-07-16T13:45:48;52.70;;;49.33;;
10452;SDS011;5274;51.992;8.518;2023-07-16T13:48:14;53.33;;;49.83;;
10452;SDS011;5274;51.992;8.518;2023-07-16T13:50:40;50.90;;;47.70;;
10452;SDS011;5274;51.992;8.518;2023-07-16T13:53:06;52.75;;;49.35;;
10452;SDS011;5274;51.992;8.518;2023-07-16T13:55:32;50.05;;;46.72;;
10452;SDS011;5274;51.992;8.518;2023-07-16T13:57:59;52.08;;;48.78;;
10452;SDS011;5274;51.992;8.518;2023-07-16T14:00:24;51.10;;;47.83;;
10452;SDS011;5274;51.992;8.518;2023-07-16T14:02:51;50.53;;;47.22;;
10452;SDS011;5274;51.992;8.518;2023-07-16T14:05:17;51.72;;;48.28;;
10452;SDS011;5274;51.992;8.518;2023-07-16T14:07:44;52.63;;;49.13;;
10452;SDS011;5274;51.992;8.518;2023-07-16T14:10:10;51.30;;;47.95;;
10452;SDS011;5274;51.992;8.518;2023-07-16T14:12:36;51.80;;;48.25;;
10452;SDS011;5274;51.992;8.518;2023-07-16T14:15:02;51.17;;;47.75;;
10452;SDS011;5274;51.992;8.518;2023-07-16T14:17:28;51.38;;;47.88;;
10452;SDS011;5274;51.992;8.518;2023-07-16T14:19:54;49.50;;;46.30;;
10452;SDS011;5274;51.992;8.518;2023-07-16T14:22:20;51.60;;;48.13;;
10452;SDS011;5274;51.992;8.518;2023-07-16T14:24:49;51.40;;;47.97;;
10452;SDS011;5274;51.992;8.518;2023-07-16T14:27:16;50.75;;;47.45;;
10452;SDS011;5274;51.992;8.518;2023-07-16T14:29:44;49.22;;;45.83;;
10452;SDS011;5274;51.992;8.518;2023-07-16T14:32:10;49.97;;;46.55;;
10452;SDS011;5274;51.992;8.518;2023-07-16T14:34:36;46.28;;;43.38;;
10452;SDS011;5274;51.992;8.518;2023-07-16T14:37:02;50.25;;;46.83;;